sensor_id;sensor_type;location;lat;lon;timestamp;pressure;altitude;pressure_sealevel;temperature;humidity
47054;BME280;32811;52.382;5.270;2023-01-15T00:00:05;99755.53;;;5.35;100.00
47054;BME280;32811;52.382;5.270;2023-01-15T00:02:32;99763.25;;;5.38;100.00
47054;BME280;32811;52.382;5.270;2023-01-15T00:05:00;99760.69;;;5.38;100.00
47054;BME280;32811;52.382;5.270;2023-01-15T00:07:29;99757.31;;;5.43;100.00
47054;BME280;32811;52.382;5.270;2023-01-15T00:09:57;99745.34;;;5.41;100.00
47054;BME280;32811;52.382;5.270;2023-01-15T00:12:23;99752.19;;;5.43;100.00
47054;BME280;32811;52.382;5.270;2023-01-15T00:14:50;99746.16;;;5.34;100.00
47054;BME280;32811;52.382;5.270;2023-01-15T00:17:17;99745.34;;;5.41;100.00
47054;BME280;32811;52.382;5.270;2023-01-15T00:19:45;99742.75;;;5.40;100.00
47054;BME280;32811;52.382;5.270;2023-01-15T00:22:12;99741.06;;;5.39;100.00
47054;BME280;32811;52.382;5.270;2023-01-15T00:24:38;99747.09;;;5.49;100.00
47054;BME280;32811;52.382;5.270;2023-01-15T00:27:23;99741.09;;;5.44;100.00
47054;BME280;32811;52.382;5.270;2023-01-15T00:30:09;99744.47;;;5.36;100.00
47054;BME280;32811;52.382;5.270;2023-01-15T00:32:37;99732.56;;;5.43;100.00
47054;BME280;32811;52.382;5.270;2023-01-15T00:35:05;99738.53;;;5.40;100.00
47054;BME280;32811;52.382;5.270;2023-01-15T00:37:31;99734.22;;;5.38;100.00
47054;BME280;32811;52.382;5.270;2023-01-15T00:39:58;99741.06;;;5.42;100.00
47054;BME280;32811;52.382;5.270;2023-01-15T00:42:25;99735.06;;;5.37;100.00
47054;BME280;32811;52.382;5.270;2023-01-15T00:44:53;99728.28;;;5.40;100.00
47054;BME280;32811;52.382;5.270;2023-01-15T00:47:19;99731.66;;;5.35;100.00
47054;BME280;32811;52.382;5.270;2023-01-15T00:49:46;99729.16;;;5.41;100.00
47054;BME280;32811;52.382;5.270;2023-01-15T00:52:14;99729.16;;;5.44;100.00
47054;BME280;32811;52.382;5.270;2023-01-15T00:54:41;99745.34;;;5.41;100.00
47054;BME280;32811;52.382;5.270;2023-01-15T00:57:07;99730.75;;;5.30;100.00
47054;BME280;32811;52.382;5.270;2023-01-15T00:59:36;99740.22;;;5.40;100.00
47054;BME280;32811;52.382;5.270;2023-01-15T01:02:03;99735.97;;;5.42;100.00
47054;BME280;32811;52.382;5.270;2023-01-15T01:04:30;99741.03;;;5.37;100.00
47054;BME280;32811;52.382;5.270;2023-01-15T01:06:57;99738.47;;;5.37;100.00
47054;BME280;32811;52.382;5.270;2023-01-15T01:09:24;99730.78;;;5.33;100.00
47054;BME280;32811;52.382;5.270;2023-01-15T01:11:51;99741.91;;;5.39;100.00
47054;BME280;32811;52.382;5.270;2023-01-15T01:14:17;99747.03;;;5.36;100.00
47054;BME280;32811;52.382;5.270;2023-01-15T01:16:45;99745.31;;;5.34;100.00
47054;BME280;32811;52.382;5.270;2023-01-15T01:19:18;99749.47;;;5.24;100.00
47054;BME280;32811;52.382;5.270;2023-01-15T01:21:46;99750.38;;;5.29;100.00
47054;BME280;32811;52.382;5.270;2023-01-15T01:24:15;99758.06;;;5.31;100.00
47054;BME280;32811;52.382;5.270;2023-01-15T01:26:43;99761.53;;;5.36;100.00
47054;BME280;32811;52.382;5.270;2023-01-15T01:29:19;99765.78;;;5.37;100.00
47054;BME280;32811;52.382;5.270;2023-01-15T01:31:47;99766.66;;;5.39;100.00
47054;BME280;32811;52.382;5.270;2023-01-15T01:34:14;99775.16;;;5.38;100.00
47054;BME280;32811;52.382;5.270;2023-01-15T01:36:42;99769.22;;;5.39;100.00
47054;BME280;32811;52.382;5.270;2023-01-15T01:39:15;99777.75;;;5.41;100.00
47054;BME280;32811;52.382;5.270;2023-01-15T01:41:42;99783.75;;;5.43;100.00
47054;BME280;32811;52.382;5.270;2023-01-15T01:47:06;99775.22;;;5.44;100.00
47054;BME280;32811;52.382;5.270;2023-01-15T01:49:34;99788.81;;;5.40;100.00
47054;BME280;32811;52.382;5.270;2023-01-15T01:52:07;99780.22;;;5.30;100.00
47054;BME280;32811;52.382;5.270;2023-01-15T01:54:35;99782.72;;;5.24;100.00
47054;BME280;32811;52.382;5.270;2023-01-15T01:57:04;99791.34;;;5.34;100.00
47054;BME280;32811;52.382;5.270;2023-01-15T01:59:32;99770.81;;;5.28;100.00
47054;BME280;32811;52.382;5.270;2023-01-15T02:01:59;99776.88;;;5.36;100.00
47054;BME280;32811;52.382;5.270;2023-01-15T02:04:31;99766.59;;;5.30;100.00
47054;BME280;32811;52.382;5.270;2023-01-15T02:06:59;99764.91;;;5.38;100.00
47054;BME280;32811;52.382;5.270;2023-01-15T02:09:26;99762.31;;;5.27;100.00
47054;BME280;32811;52.382;5.270;2023-01-15T02:11:56;99763.91;;;5.17;100.00
47054;BME280;32811;52.382;5.270;2023-01-15T02:14:30;99763.06;;;5.18;100.00
47054;BME280;32811;52.382;5.270;2023-01-15T02:19:44;99781.81;;;5.17;100.00
47054;BME280;32811;52.382;5.270;2023-01-15T02:22:35;99756.16;;;5.08;100.00
47054;BME280;32811;52.382;5.270;2023-01-15T02:25:38;99763.88;;;5.13;100.00
47054;BME280;32811;52.382;5.270;2023-01-15T02:30:54;99775.00;;;5.16;100.00
47054;BME280;32811;52.382;5.270;2023-01-15T02:33:27;99757.91;;;5.15;100.00
47054;BME280;32811;52.382;5.270;2023-01-15T02:35:59;99753.63;;;5.10;100.00
47054;BME280;32811;52.382;5.270;2023-01-15T02:38:36;99750.09;;;5.00;100.00
47054;BME280;32811;52.382;5.270;2023-01-15T02:41:05;99755.22;;;4.98;100.00
47054;BME280;32811;52.382;5.270;2023-01-15T02:43:43;99757.75;;;5.00;100.00
47054;BME280;32811;52.382;5.270;2023-01-15T02:46:13;99756.97;;;5.06;100.00
47054;BME280;32811;52.382;5.270;2023-01-15T02:48:41;99759.50;;;5.04;100.00
47054;BME280;32811;52.382;5.270;2023-01-15T02:51:14;99753.53;;;5.01;100.00
47054;BME280;32811;52.382;5.270;2023-01-15T02:53:43;99755.22;;;5.02;100.00
47054;BME280;32811;52.382;5.270;2023-01-15T02:56:14;99755.28;;;5.05;100.00
47054;BME280;32811;52.382;5.270;2023-01-15T02:58:43;99755.28;;;5.06;100.00
47054;BME280;32811;52.382;5.270;2023-01-15T03:01:14;99747.53;;;5.00;100.00
47054;BME280;32811;52.382;5.270;2023-01-15T03:03:50;99748.47;;;5.08;100.00
47054;BME280;32811;52.382;5.270;2023-01-15T03:07:02;99747.66;;;5.09;100.00
47054;BME280;32811;52.382;5.270;2023-01-15T03:09:25;99748.56;;;5.16;100.00
47054;BME280;32811;52.382;5.270;2023-01-15T03:12:03;99745.13;;;5.14;100.00
47054;BME280;32811;52.382;5.270;2023-01-15T03:15:14;99743.50;;;5.24;100.00
47054;BME280;32811;52.382;5.270;2023-01-15T03:17:58;99736.59;;;5.15;100.00
47054;BME280;32811;52.382;5.270;2023-01-15T03:20:28;99739.22;;;5.18;100.00
47054;BME280;32811;52.382;5.270;2023-01-15T03:23:05;99710.97;;;5.09;100.00
47054;BME280;32811;52.382;5.270;2023-01-15T03:25:39;99735.75;;;5.17;100.00
47054;BME280;32811;52.382;5.270;2023-01-15T03:28:09;99721.31;;;5.24;100.00
47054;BME280;32811;52.382;5.270;2023-01-15T03:30:37;99735.00;;;5.25;100.00
47054;BME280;32811;52.382;5.270;2023-01-15T03:33:04;99729.75;;;5.09;100.00
47054;BME280;32811;52.382;5.270;2023-01-15T03:35:50;99733.19;;;5.11;100.00
47054;BME280;32811;52.382;5.270;2023-01-15T03:38:20;99723.91;;;5.23;100.00
47054;BME280;32811;52.382;5.270;2023-01-15T03:41:04;99739.97;;;5.11;100.00
47054;BME280;32811;52.382;5.270;2023-01-15T03:46:18;99733.09;;;5.04;100.00
47054;BME280;32811;52.382;5.270;2023-01-15T03:54:47;99736.50;;;5.03;100.00
47054;BME280;32811;52.382;5.270;2023-01-15T03:57:16;99736.50;;;5.04;100.00
47054;BME280;32811;52.382;5.270;2023-01-15T03:59:50;99735.66;;;5.07;100.00
47054;BME280;32811;52.382;5.270;2023-01-15T04:02:21;99733.09;;;5.07;100.00
47054;BME280;32811;52.382;5.270;2023-01-15T04:04:50;99719.47;;;5.06;100.00
47054;BME280;32811;52.382;5.270;2023-01-15T04:07:19;99715.22;;;5.08;100.00
47054;BME280;32811;52.382;5.270;2023-01-15T04:09:46;99728.06;;;5.13;100.00
47054;BME280;32811;52.382;5.270;2023-01-15T04:12:13;99724.59;;;5.06;100.00
47054;BME280;32811;52.382;5.270;2023-01-15T04:14:40;99722.88;;;5.05;100.00
47054;BME280;32811;52.382;5.270;2023-01-15T04:17:07;99722.00;;;5.03;100.00
47054;BME280;32811;52.382;5.270;2023-01-15T04:19:35;99729.59;;;4.95;100.00
47054;BME280;32811;52.382;5.270;2023-01-15T04:22:02;99726.19;;;4.95;100.00
47054;BME280;32811;52.382;5.270;2023-01-15T04:24:29;99732.19;;;5.00;100.00
47054;BME280;32811;52.382;5.270;2023-01-15T04:26:56;99726.25;;;5.01;100.00
47054;BME280;32811;52.382;5.270;2023-01-15T04:29:23;99716.88;;;5.02;100.00
47054;BME280;32811;52.382;5.270;2023-01-15T04:31:49;99730.47;;;4.97;100.00
47054;BME280;32811;52.382;5.270;2023-01-15T04:34:18;99722.81;;;4.96;100.00
47054;BME280;32811;52.382;5.270;2023-01-15T04:36:45;99718.59;;;5.01;100.00
47054;BME280;32811;52.382;5.270;2023-01-15T04:39:13;99716.03;;;5.01;100.00
47054;BME280;32811;52.382;5.270;2023-01-15T04:41:39;99714.31;;;4.98;100.00
47054;BME280;32811;52.382;5.270;2023-01-15T04:44:25;99705.81;;;5.03;100.00
47054;BME280;32811;52.382;5.270;2023-01-15T04:46:54;99711.81;;;5.06;100.00
47054;BME280;32811;52.382;5.270;2023-01-15T04:49:22;99706.66;;;5.03;100.00
47054;BME280;32811;52.382;5.270;2023-01-15T04:51:49;99716.91;;;5.05;100.00
47054;BME280;32811;52.382;5.270;2023-01-15T04:54:16;99704.94;;;5.02;100.00
47054;BME280;32811;52.382;5.270;2023-01-15T04:56:45;99710.94;;;5.06;100.00
47054;BME280;32811;52.382;5.270;2023-01-15T04:59:13;99704.16;;;5.08;100.00
47054;BME280;32811;52.382;5.270;2023-01-15T05:01:40;99710.09;;;5.05;100.00
47054;BME280;32811;52.382;5.270;2023-01-15T05:04:19;99701.53;;;4.98;100.00
47054;BME280;32811;52.382;5.270;2023-01-15T05:06:47;99701.41;;;4.88;100.00
47054;BME280;32811;52.382;5.270;2023-01-15T05:09:14;99705.69;;;4.89;100.00
47054;BME280;32811;52.382;5.270;2023-01-15T05:11:41;99697.19;;;4.90;100.00
47054;BME280;32811;52.382;5.270;2023-01-15T05:14:08;99707.38;;;4.87;100.00
47054;BME280;32811;52.382;5.270;2023-01-15T05:16:35;99705.66;;;4.83;100.00
47054;BME280;32811;52.382;5.270;2023-01-15T05:19:04;99706.47;;;4.82;100.00
47054;BME280;32811;52.382;5.270;2023-01-15T05:21:35;99692.06;;;4.90;100.00
47054;BME280;32811;52.382;5.270;2023-01-15T05:24:05;99688.72;;;5.00;100.00
47054;BME280;32811;52.382;5.270;2023-01-15T05:26:35;99689.53;;;4.93;100.00
47054;BME280;32811;52.382;5.270;2023-01-15T05:29:02;99692.91;;;4.87;100.00
47054;BME280;32811;52.382;5.270;2023-01-15T05:31:30;99692.09;;;4.94;100.00
47054;BME280;32811;52.382;5.270;2023-01-15T05:33:57;99684.44;;;4.96;100.00
47054;BME280;32811;52.382;5.270;2023-01-15T05:36:30;99692.97;;;4.93;100.00
47054;BME280;32811;52.382;5.270;2023-01-15T05:38:58;99677.66;;;5.01;100.00
47054;BME280;32811;52.382;5.270;2023-01-15T05:41:28;99688.78;;;5.05;100.00
47054;BME280;32811;52.382;5.270;2023-01-15T05:44:25;99686.28;;;5.09;100.00
47054;BME280;32811;52.382;5.270;2023-01-15T05:46:55;99698.16;;;5.03;100.00
47054;BME280;32811;52.382;5.270;2023-01-15T05:49:24;99682.75;;;4.96;100.00
47054;BME280;32811;52.382;5.270;2023-01-15T05:51:52;99679.34;;;4.99;100.00
47054;BME280;32811;52.382;5.270;2023-01-15T05:54:22;99675.06;;;4.96;100.00
47054;BME280;32811;52.382;5.270;2023-01-15T05:56:50;99691.19;;;4.88;100.00
47054;BME280;32811;52.382;5.270;2023-01-15T05:59:19;99694.59;;;4.87;100.00
47054;BME280;32811;52.382;5.270;2023-01-15T06:01:47;99701.34;;;4.82;100.00
47054;BME280;32811;52.382;5.270;2023-01-15T06:04:14;99700.56;;;4.87;100.00
47054;BME280;32811;52.382;5.270;2023-01-15T06:06:42;99692.06;;;4.87;100.00
47054;BME280;32811;52.382;5.270;2023-01-15T06:09:09;99699.66;;;4.81;100.00
47054;BME280;32811;52.382;5.270;2023-01-15T06:11:36;99714.19;;;4.85;100.00
47054;BME280;32811;52.382;5.270;2023-01-15T06:14:04;99703.97;;;4.88;100.00
47054;BME280;32811;52.382;5.270;2023-01-15T06:16:31;99704.84;;;4.87;100.00
47054;BME280;32811;52.382;5.270;2023-01-15T06:19:04;99707.22;;;4.73;100.00
47054;BME280;32811;52.382;5.270;2023-01-15T06:21:32;99699.53;;;4.68;100.00
47054;BME280;32811;52.382;5.270;2023-01-15T06:24:00;99701.97;;;4.57;100.00
47054;BME280;32811;52.382;5.270;2023-01-15T06:26:26;99702.81;;;4.53;100.00
47054;BME280;32811;52.382;5.270;2023-01-15T06:28:53;99713.09;;;4.61;100.00
47054;BME280;32811;52.382;5.270;2023-01-15T06:31:22;99691.69;;;4.53;100.00
47054;BME280;32811;52.382;5.270;2023-01-15T06:33:49;99698.53;;;4.54;100.00
47054;BME280;32811;52.382;5.270;2023-01-15T06:36:18;99699.38;;;4.53;100.00
47054;BME280;32811;52.382;5.270;2023-01-15T06:38:49;99692.59;;;4.56;100.00
47054;BME280;32811;52.382;5.270;2023-01-15T06:41:19;99706.13;;;4.48;100.00
47054;BME280;32811;52.382;5.270;2023-01-15T06:44:05;99710.44;;;4.52;100.00
47054;BME280;32811;52.382;5.270;2023-01-15T06:46:52;99708.66;;;4.45;100.00
47054;BME280;32811;52.382;5.270;2023-01-15T06:49:37;99707.88;;;4.52;100.00
47054;BME280;32811;52.382;5.270;2023-01-15T06:52:05;99701.78;;;4.39;100.00
47054;BME280;32811;52.382;5.270;2023-01-15T06:54:33;99706.06;;;4.42;100.00
47054;BME280;32811;52.382;5.270;2023-01-15T06:57:01;99696.69;;;4.41;100.00
47054;BME280;32811;52.382;5.270;2023-01-15T06:59:28;99695.75;;;4.31;100.00
47054;BME280;32811;52.382;5.270;2023-01-15T07:01:54;99703.44;;;4.37;100.00
47054;BME280;32811;52.382;5.270;2023-01-15T07:04:21;99706.81;;;4.31;100.00
47054;BME280;32811;52.382;5.270;2023-01-15T07:06:48;99703.44;;;4.37;100.00
47054;BME280;32811;52.382;5.270;2023-01-15T07:09:15;99692.31;;;4.30;100.00
47054;BME280;32811;52.382;5.270;2023-01-15T07:11:42;99698.34;;;4.35;100.00
47054;BME280;32811;52.382;5.270;2023-01-15T07:14:23;99695.78;;;4.34;100.00
47054;BME280;32811;52.382;5.270;2023-01-15T07:16:51;99699.16;;;4.33;100.00
47054;BME280;32811;52.382;5.270;2023-01-15T07:19:18;99691.34;;;4.18;100.00
47054;BME280;32811;52.382;5.270;2023-01-15T07:21:45;99696.44;;;4.18;100.00
47054;BME280;32811;52.382;5.270;2023-01-15T07:24:12;99704.97;;;4.21;100.00
47054;BME280;32811;52.382;5.270;2023-01-15T07:26:41;99704.19;;;4.28;100.00
47054;BME280;32811;52.382;5.270;2023-01-15T07:29:08;99694.06;;;4.34;100.00
47054;BME280;32811;52.382;5.270;2023-01-15T07:31:35;99694.81;;;4.26;100.00
47054;BME280;32811;52.382;5.270;2023-01-15T07:34:03;99684.59;;;4.26;100.00
47054;BME280;32811;52.382;5.270;2023-01-15T07:36:30;99685.44;;;4.26;100.00
47054;BME280;32811;52.382;5.270;2023-01-15T07:38:57;99685.44;;;4.26;100.00
47054;BME280;32811;52.382;5.270;2023-01-15T07:41:24;99669.19;;;4.18;100.00
47054;BME280;32811;52.382;5.270;2023-01-15T07:44:10;99670.03;;;4.15;100.00
47054;BME280;32811;52.382;5.270;2023-01-15T07:46:56;99666.72;;;4.24;100.00
47054;BME280;32811;52.382;5.270;2023-01-15T07:49:42;99665.78;;;4.16;100.00
47054;BME280;32811;52.382;5.270;2023-01-15T07:52:18;99651.34;;;4.21;100.00
47054;BME280;32811;52.382;5.270;2023-01-15T07:54:47;99668.53;;;4.34;100.00
47054;BME280;32811;52.382;5.270;2023-01-15T07:57:20;99666.03;;;4.41;100.00
47054;BME280;32811;52.382;5.270;2023-01-15T07:59:48;99660.06;;;4.42;100.00
47054;BME280;32811;52.382;5.270;2023-01-15T08:02:15;99645.63;;;4.44;100.00
47054;BME280;32811;52.382;5.270;2023-01-15T08:04:42;99650.72;;;4.41;100.00
47054;BME280;32811;52.382;5.270;2023-01-15T08:07:10;99658.44;;;4.47;100.00
47054;BME280;32811;52.382;5.270;2023-01-15T08:09:38;99646.53;;;4.49;100.00
47054;BME280;32811;52.382;5.270;2023-01-15T08:12:05;99654.25;;;4.53;100.00
47054;BME280;32811;52.382;5.270;2023-01-15T08:14:50;99668.66;;;4.47;100.00
47054;BME280;32811;52.382;5.270;2023-01-15T08:17:36;99680.59;;;4.49;100.00
47054;BME280;32811;52.382;5.270;2023-01-15T08:20:05;99677.28;;;4.58;100.00
47054;BME280;32811;52.382;5.270;2023-01-15T08:22:34;99672.13;;;4.55;100.00
47054;BME280;32811;52.382;5.270;2023-01-15T08:25:01;99662.78;;;4.54;100.00
47054;BME280;32811;52.382;5.270;2023-01-15T08:27:28;99660.22;;;4.55;100.00
47054;BME280;32811;52.382;5.270;2023-01-15T08:29:57;99661.09;;;4.59;100.00
47054;BME280;32811;52.382;5.270;2023-01-15T08:32:24;99673.09;;;4.65;100.00
47054;BME280;32811;52.382;5.270;2023-01-15T08:34:51;99665.41;;;4.63;100.00
47054;BME280;32811;52.382;5.270;2023-01-15T08:37:18;99640.72;;;4.62;100.00
47054;BME280;32811;52.382;5.270;2023-01-15T08:39:45;99637.38;;;4.72;100.00
47054;BME280;32811;52.382;5.270;2023-01-15T08:42:11;99652.03;;;4.92;100.00
47054;BME280;32811;52.382;5.270;2023-01-15T08:44:38;99664.78;;;4.87;100.00
47054;BME280;32811;52.382;5.270;2023-01-15T08:47:05;99658.88;;;4.96;100.00
47054;BME280;32811;52.382;5.270;2023-01-15T08:49:32;99671.69;;;4.99;100.00
47054;BME280;32811;52.382;5.270;2023-01-15T08:51:58;99655.53;;;5.03;100.00
47054;BME280;32811;52.382;5.270;2023-01-15T08:54:26;99636.66;;;4.89;100.00
47054;BME280;32811;52.382;5.270;2023-01-15T08:56:53;99651.16;;;4.90;100.00
47054;BME280;32811;52.382;5.270;2023-01-15T08:59:19;99663.09;;;4.91;100.00
47054;BME280;32811;52.382;5.270;2023-01-15T09:01:46;99676.72;;;4.90;100.00
47054;BME280;32811;52.382;5.270;2023-01-15T09:04:14;99671.53;;;4.84;100.00
47054;BME280;32811;52.382;5.270;2023-01-15T09:06:43;99676.66;;;4.81;100.00
47054;BME280;32811;52.382;5.270;2023-01-15T09:09:10;99669.63;;;4.58;100.00
47054;BME280;32811;52.382;5.270;2023-01-15T09:11:38;99682.38;;;4.56;100.00
47054;BME280;32811;52.382;5.270;2023-01-15T09:14:12;99681.53;;;4.56;100.00
47054;BME280;32811;52.382;5.270;2023-01-15T09:16:59;99680.75;;;4.63;100.00
47054;BME280;32811;52.382;5.270;2023-01-15T09:19:26;99657.72;;;4.60;100.00
47054;BME280;32811;52.382;5.270;2023-01-15T09:21:52;99652.47;;;4.48;100.00
47054;BME280;32811;52.382;5.270;2023-01-15T09:24:19;99650.66;;;4.36;100.00
47054;BME280;32811;52.382;5.270;2023-01-15T09:26:46;99671.97;;;4.38;100.00
47054;BME280;32811;52.382;5.270;2023-01-15T09:29:13;99664.34;;;4.43;100.00
47054;BME280;32811;52.382;5.270;2023-01-15T09:31:39;99668.59;;;4.41;100.00
47054;BME280;32811;52.382;5.270;2023-01-15T09:34:06;99666.91;;;4.43;100.00
47054;BME280;32811;52.382;5.270;2023-01-15T09:36:34;99667.88;;;4.54;100.00
47054;BME280;32811;52.382;5.270;2023-01-15T09:39:02;99656.16;;;4.76;100.00
47054;BME280;32811;52.382;5.270;2023-01-15T09:41:49;99657.03;;;4.79;100.00
47054;BME280;32811;52.382;5.270;2023-01-15T09:44:45;99679.25;;;4.87;100.00
47054;BME280;32811;52.382;5.270;2023-01-15T09:47:43;99657.84;;;4.74;100.00
47054;BME280;32811;52.382;5.270;2023-01-15T09:55:51;99674.25;;;5.02;100.00
47054;BME280;32811;52.382;5.270;2023-01-15T09:58:20;99680.25;;;5.06;100.00
47054;BME280;32811;52.382;5.270;2023-01-15T10:00:53;99679.47;;;5.11;100.00
47054;BME280;32811;52.382;5.270;2023-01-15T10:03:32;99680.31;;;5.13;100.00
47054;BME280;32811;52.382;5.270;2023-01-15T10:09:10;99671.00;;;5.22;100.00
47054;BME280;32811;52.382;5.270;2023-01-15T10:11:43;99676.78;;;4.97;100.00
47054;BME280;32811;52.382;5.270;2023-01-15T10:14:45;99685.34;;;5.01;100.00
47054;BME280;32811;52.382;5.270;2023-01-15T10:17:20;99683.75;;;5.14;100.00
47054;BME280;32811;52.382;5.270;2023-01-15T10:19:48;99683.75;;;5.14;100.00
47054;BME280;32811;52.382;5.270;2023-01-15T10:22:24;99681.16;;;5.09;100.00
47054;BME280;32811;52.382;5.270;2023-01-15T10:24:57;99688.72;;;4.98;100.00
47054;BME280;32811;52.382;5.270;2023-01-15T10:27:27;99691.28;;;5.00;100.00
47054;BME280;32811;52.382;5.270;2023-01-15T10:30:13;99702.34;;;4.97;100.00
47054;BME280;32811;52.382;5.270;2023-01-15T10:32:50;99704.91;;;4.96;100.00
47054;BME280;32811;52.382;5.270;2023-01-15T10:38:11;99687.19;;;5.22;100.00
47054;BME280;32811;52.382;5.270;2023-01-15T10:46:16;99692.63;;;5.71;100.00
47054;BME280;32811;52.382;5.270;2023-01-15T10:48:47;99697.78;;;5.77;100.00
47054;BME280;32811;52.382;5.270;2023-01-15T10:52:16;99692.69;;;5.79;100.00
47054;BME280;32811;52.382;5.270;2023-01-15T10:57:07;99691.84;;;5.81;100.00
47054;BME280;32811;52.382;5.270;2023-01-15T10:59:49;99687.59;;;5.85;100.00
47054;BME280;32811;52.382;5.270;2023-01-15T11:02:26;99695.25;;;5.79;100.00
47054;BME280;32811;52.382;5.270;2023-01-15T11:04:54;99695.38;;;5.94;100.00
47054;BME280;32811;52.382;5.270;2023-01-15T11:07:25;99701.34;;;5.96;100.00
47054;BME280;32811;52.382;5.270;2023-01-15T11:10:04;99707.31;;;6.00;100.00
47054;BME280;32811;52.382;5.270;2023-01-15T11:12:33;99707.31;;;5.95;100.00
47054;BME280;32811;52.382;5.270;2023-01-15T11:15:22;99692.75;;;5.91;100.00
47054;BME280;32811;52.382;5.270;2023-01-15T11:18:38;99697.88;;;5.90;100.00
47054;BME280;32811;52.382;5.270;2023-01-15T11:21:24;99696.22;;;5.96;100.00
47054;BME280;32811;52.382;5.270;2023-01-15T11:23:54;99700.47;;;5.96;100.00
47054;BME280;32811;52.382;5.270;2023-01-15T11:26:30;99691.97;;;6.00;100.00
47054;BME280;32811;52.382;5.270;2023-01-15T11:28:59;99685.13;;;5.99;100.00
47054;BME280;32811;52.382;5.270;2023-01-15T11:31:38;99690.25;;;5.94;100.00
47054;BME280;32811;52.382;5.270;2023-01-15T11:34:17;99684.31;;;6.06;100.00
47054;BME280;32811;52.382;5.270;2023-01-15T11:36:47;99683.47;;;6.13;100.00
47054;BME280;32811;52.382;5.270;2023-01-15T11:39:24;99698.88;;;6.12;100.00
47054;BME280;32811;52.382;5.270;2023-01-15T11:42:01;99696.22;;;5.99;100.00
47054;BME280;32811;52.382;5.270;2023-01-15T11:44:55;99691.91;;;5.92;100.00
47054;BME280;32811;52.382;5.270;2023-01-15T11:47:51;99690.97;;;5.76;100.00
47054;BME280;32811;52.382;5.270;2023-01-15T11:50:56;99704.72;;;5.92;100.00
47054;BME280;32811;52.382;5.270;2023-01-15T11:53:26;99696.22;;;5.96;100.00
47054;BME280;32811;52.382;5.270;2023-01-15T11:55:58;99689.41;;;5.98;100.00
47054;BME280;32811;52.382;5.270;2023-01-15T11:58:47;99693.75;;;6.22;100.00
47054;BME280;32811;52.382;5.270;2023-01-15T12:01:29;99686.13;;;6.35;100.00
47054;BME280;32811;52.382;5.270;2023-01-15T12:03:59;99682.69;;;6.33;100.00
47054;BME280;32811;52.382;5.270;2023-01-15T12:06:28;99690.38;;;6.40;100.00
47054;BME280;32811;52.382;5.270;2023-01-15T12:14:45;99686.09;;;6.26;100.00
47054;BME280;32811;52.382;5.270;2023-01-15T12:23:04;99691.19;;;6.15;100.00
47054;BME280;32811;52.382;5.270;2023-01-15T12:28:13;99692.09;;;6.28;100.00
47054;BME280;32811;52.382;5.270;2023-01-15T12:31:07;99697.25;;;6.37;100.00
47054;BME280;32811;52.382;5.270;2023-01-15T12:33:55;99698.06;;;6.30;100.00
47054;BME280;32811;52.382;5.270;2023-01-15T12:36:57;99696.38;;;6.39;100.00
47054;BME280;32811;52.382;5.270;2023-01-15T12:39:33;99690.38;;;6.31;100.00
47054;BME280;32811;52.382;5.270;2023-01-15T12:42:07;99706.56;;;6.27;100.00
47054;BME280;32811;52.382;5.270;2023-01-15T12:44:57;99709.19;;;6.36;100.00
47054;BME280;32811;52.382;5.270;2023-01-15T12:47:54;99696.41;;;6.41;100.00
47054;BME280;32811;52.382;5.270;2023-01-15T12:50:43;99704.97;;;6.51;100.00
47054;BME280;32811;52.382;5.270;2023-01-15T12:55:57;99693.81;;;6.42;100.00
47054;BME280;32811;52.382;5.270;2023-01-15T13:01:02;99692.13;;;6.46;100.00
47054;BME280;32811;52.382;5.270;2023-01-15T13:03:44;99700.66;;;6.45;100.00
47054;BME280;32811;52.382;5.270;2023-01-15T13:06:15;99702.41;;;6.57;100.00
47054;BME280;32811;52.382;5.270;2023-01-15T13:11:55;99685.25;;;6.40;100.00
47054;BME280;32811;52.382;5.270;2023-01-15T13:14:23;99675.00;;;6.40;100.00
47054;BME280;32811;52.382;5.270;2023-01-15T13:17:02;99687.84;;;6.37;100.00
47054;BME280;32811;52.382;5.270;2023-01-15T13:20:01;99689.53;;;6.40;100.00
47054;BME280;32811;52.382;5.270;2023-01-15T13:22:31;99695.56;;;6.51;100.00
47054;BME280;32811;52.382;5.270;2023-01-15T13:25:21;99695.56;;;6.56;100.00
47054;BME280;32811;52.382;5.270;2023-01-15T13:33:41;99710.06;;;6.49;100.00
47054;BME280;32811;52.382;5.270;2023-01-15T13:36:37;99697.25;;;6.44;100.00
47054;BME280;32811;52.382;5.270;2023-01-15T13:39:17;99699.81;;;6.41;100.00
47054;BME280;32811;52.382;5.270;2023-01-15T13:41:51;99715.16;;;6.34;100.00
47054;BME280;32811;52.382;5.270;2023-01-15T13:44:43;99714.28;;;6.32;100.00
47054;BME280;32811;52.382;5.270;2023-01-15T13:47:16;99720.28;;;6.31;100.00
47054;BME280;32811;52.382;5.270;2023-01-15T13:49:51;99713.44;;;6.33;100.00
47054;BME280;32811;52.382;5.270;2023-01-15T13:52:25;99717.69;;;6.23;100.00
47054;BME280;32811;52.382;5.270;2023-01-15T13:54:54;99729.56;;;6.09;100.00
47054;BME280;32811;52.382;5.270;2023-01-15T13:57:31;99727.03;;;6.15;100.00
47054;BME280;32811;52.382;5.270;2023-01-15T14:00:00;99743.19;;;5.98;100.00
47054;BME280;32811;52.382;5.270;2023-01-15T14:02:31;99754.25;;;5.96;100.00
47054;BME280;32811;52.382;5.270;2023-01-15T14:05:16;99761.94;;;5.96;100.00
47054;BME280;32811;52.382;5.270;2023-01-15T14:07:48;99754.09;;;5.76;100.00
47054;BME280;32811;52.382;5.270;2023-01-15T14:23:47;99831.94;;;5.00;100.00
47054;BME280;32811;52.382;5.270;2023-01-15T14:26:43;99822.38;;;4.84;100.00
47054;BME280;32811;52.382;5.270;2023-01-15T14:31:50;99820.44;;;4.63;100.00
47054;BME280;32811;52.382;5.270;2023-01-15T14:34:27;99822.22;;;4.68;100.00
47054;BME280;32811;52.382;5.270;2023-01-15T14:39:37;99827.19;;;4.57;100.00
47054;BME280;32811;52.382;5.270;2023-01-15T14:42:14;99833.13;;;4.53;100.00
47054;BME280;32811;52.382;5.270;2023-01-15T14:45:16;99843.28;;;4.49;100.00
47054;BME280;32811;52.382;5.270;2023-01-15T14:47:46;99837.25;;;4.44;100.00
47054;BME280;32811;52.382;5.270;2023-01-15T14:50:30;99850.03;;;4.45;100.00
47054;BME280;32811;52.382;5.270;2023-01-15T14:55:45;99850.94;;;4.49;100.00